Logo AVAMET
Benvolgut visitant, si us plau, ingressa Recuperar contrasenya
AVAMET paisatges

Xàbia Xàbia Històrica

Dades diàries. Acumulats / Últims 30 dies disponibles

Data Temperatura (°C) Humitat rel. (%) Pressió rel. (hPa) Vent (km/h) Precipitació
Mínima Mitjana Màxima Amplitud
tèrmica
Mínima Mitjana Màxima Mínima Mitjana Màxima Predom. Mitjana Ràfega
màxima
Total
(mm)
Índex-n
Mínima Mitjana Màxima Mínima Mitjana Màxima n
0 a 1
P0 max
mm 5'
Dades mensuals acumulades fins l'últim dia disponible
05/2020 13,8 17,5 21,6 21,0 19,9 24,9 29,2 15,4 32 69 92 1.002 1.017 1.028   8,9 49,9 11,4
Dades anuals acumulades fins l'últim dia disponible
2020 5,8 12,8 21,6 16,0 12,9 19,5 29,2 23,4 15 72 96 1.002 1.020 1.035   8,4 96,6 236,2
Últims 30 dies disponibles
31-05-2020 17,3     21,1     24,8 7,5 55 73 86 1.012 1.014 1.015 SSO 7,1 29,0 0,0
30-05-2020 16,9     21,1     25,1 8,2 50 68 83 1.014 1.015 1.017 W 7,6 30,6 0,0
29-05-2020 16,2     21,5     26,2 10,0 40 60 86 1.014 1.017 1.021 W 5,8 25,7 0,0
28-05-2020 19,7     20,8     22,8 3,1 70 80 85 1.024 1.025 1.026 ENE 9,5 32,2 0,0
27-05-2020 18,8     21,2     23,8 5,0 63 77 85 1.023 1.025 1.025 NNW 13,4 37,0 0,0
26-05-2020 19,0     21,4     23,8 4,8 64 73 83 1.024 1.025 1.026 NNW 9,8 35,4 0,0
25-05-2020 17,4     20,7     24,4 7,0 41 71 82 1.024 1.026 1.027 W 6,0 27,4 0,0
24-05-2020 20,2     21,6     23,1 2,9 71 80 90 1.026 1.027 1.028 ENE 8,7 27,4 0,0
23-05-2020 18,5     23,9     28,9 10,4 33 52 79 1.023 1.024 1.026 WSW 7,1 27,4 0,0
22-05-2020 19,0     23,9     29,2 10,2 32 58 85 1.020 1.022 1.025 WSW 8,4 29,0 0,0
21-05-2020 18,6     22,4     27,6 9,0 47 73 92 1.017 1.019 1.021 WSW 8,7 29,0 0,0
20-05-2020 18,7     22,8     28,4 9,7 39 64 79 1.014 1.015 1.017 W 6,6 22,5 0,0
19-05-2020 16,4     21,7     26,7 10,3 39 64 91 1.015 1.017 1.020 W 9,8 40,2 0,0
18-05-2020 15,4     20,3     25,1 9,7 42 68 83 1.019 1.020 1.022 SW 7,7 29,0 0,0
17-05-2020 16,1     18,4     22,6 6,5 61 76 91 1.019 1.020 1.022 E 6,8 25,7 2,2 0,26 0,60
16-05-2020 15,7     17,8     19,9 4,2 70 80 86 1.014 1.016 1.019 NW 9,8 41,8 0,2
15-05-2020 14,9     18,0     20,5 5,6 54 70 85 1.010 1.012 1.015 ENE 8,5 33,8 0,0
14-05-2020 13,8     17,1     21,6 7,8 46 71 91 1.002 1.005 1.010 WNW 10,8 49,9 7,2 0,58 1,10
13-05-2020 15,8     19,3     22,4 6,6 44 59 82 1.005 1.006 1.007 SW 11,7 35,4 0,0
12-05-2020 17,9     20,4     22,8 4,9 45 62 87 1.005 1.008 1.011 NNW 8,7 32,2 0,0
11-05-2020 17,6     21,6     26,2 8,6 37 50 57 1.006 1.008 1.011 WNW 12,7 46,7 0,0
10-05-2020 15,6     19,8     24,5 8,9 36 71 90 1.004 1.006 1.009 WSW 12,2 49,9 1,6 0,20
09-05-2020 18,1     20,1     23,4 5,3 69 81 89 1.009 1.012 1.015 SW 9,7 32,2 0,0
08-05-2020 18,4     19,7     21,8 3,4 75 85 90 1.014 1.016 1.017 NNW 11,7 40,2 0,0
07-05-2020 17,3     20,4     23,8 6,5 52 79 92 1.017 1.018 1.019 NNW 11,1 37,0 0,0
06-05-2020 17,8     20,9     25,2 7,4 51 75 89 1.015 1.016 1.018 ENE 6,9 30,6 0,0
05-05-2020 16,6     21,1     26,9 10,3 44 76 91 1.013 1.014 1.015 E 4,7 22,5 0,0
04-05-2020 16,7     20,1     24,7 8,0 58 80 92 1.014 1.016 1.017 E 5,1 30,6 0,2
03-05-2020 18,7     23,2     27,1 8,4 43 59 89 1.016 1.017 1.019 ENE 6,3 29,0 0,0
02-05-2020 21,6     25,1     29,1 7,5 36 49 60 1.017 1.018 1.019 WSW 11,7 43,5 0,0
Últims 13 mesos disponibles
04/2020 10,1 13,6 18,0 16,0 14,4 19,0 24,6 14,5 49 78 94 1.006 1.016 1.026 NNW 8,2 51,5 50,0
03/2020 8,8 12,1 16,9 14,9 12,9 18,1 24,7 15,9 42 70 92 1.007 1.017 1.026 ENE 11,5 95,0 74,6
02/2020 8,3 11,6 15,4 15,3 14,8 19,5 26,8 18,5 34 69 88 1.014 1.025 1.033 W 6,9 45,1 1,6
01/2020 5,8 9,3 15,2 12,7 13,4 16,2 22,3 16,5 50 74 89 1.014 1.025 1.033 6,3 96,6 98,6
12/2019 7,3 11,8 16,1 14,6 13,4 17,7 22,9 15,6 45 71 89 1.005 1.019 1.033 0,2 38,0 165,0
11/2019 8,1 13,0 21,1 16,2 14,5 19,6 27,7 19,6 40 56 81 999 1.011 1.019 W 12,2 74,0 12,2
10/2019 10,9 17,3 21,8 20,7 16,7 24,2 30,2 19,3 43 71 87 1.008 1.017 1.022 W 7,4 69,2 72,2
09/2019 14,2 20,7 24,1 23,8 23,0 26,7 31,0 16,8 60 78 92 1.010 1.018 1.023 NE 8,8 74,0 179,2
08/2019 20,1 23,2 26,3 26,2 26,1 29,7 35,1 15,0 59 75 84 1.011 1.016 1.020 SW 8,9 46,7 35,4
07/2019 21,3 23,3 26,1 26,5 27,4 30,1 35,1 13,8 50 70 81 1.006 1.014 1.021 SW 8,8 69,2 2,2
06/2019 14,9 18,7 22,7 22,3 20,4 26,0 34,0 19,1 48 69 84 1.009 1.015 1.022 SW 10,5 53,1 0,6
05/2019 11,6 15,4 21,1 18,6 18,1 22,2 29,0 17,4 52 69 81 1.005 1.015 1.025 SW 9,2 70,8 12,4
04/2019 9,4 12,4 14,6 15,5 14,5 18,9 27,3 17,9 40 68 92 1.000 1.013 1.025 NE 10,9 75,6 362,6
Tots els anys disponibles
2019 4,9 15,5 26,3 18,8 11,4 22,3 35,1 30,2 19 68 92 994 1.017 1.033 W 8,5 75,6 882,9
2018 4,4 15,9 27,3 19,1 8,2 22,9 36,9 32,5 34 78 93 998 1.017 1.028 W 8,2 72,2 675,6
2017 1,1 15,8 27,2 19,3 9,4 23,0 35,5 34,4 63 66 67 1.017 1.017 1.018 8,0 80,0 486,2
2016 4,4 16,1 26,7 19,5 12,4 22,9 38,0 33,6 55 64 78 1.014 1.018 1.025 8,5 67,0 367,4
Temperatura (°C)
Humitat relativa (%)
Velocitat del vent i ràfega màxima (km/h)
Direcció del vent (°)
Pressió (hPa)
Precipitació (mm)
Nota sobre les dades: s'avisa a l'usuari de la provisionalitat i no oficialitat d'aquestes dades
Logo AVAMET blanc
Web allotjada a Sollutia
Llicència de Creative CommonsLa web d'AVAMET i els seus continguts estan subjectes a una llicència de
Reconeixement - No Comercial - Compartir igual
Últimes estacions: Xodos - la Vega (Soci), la Vall d'Alba - Centre (Ajuntament soci), Chera (Ajuntament soci) - - -